createdAt,value
2022-12-10T00:01:24.069Z,-2.40
2022-12-10T00:03:50.884Z,-2.40
2022-12-10T00:06:18.812Z,-2.40
2022-12-10T00:08:45.697Z,-2.40
2022-12-10T00:11:13.027Z,-2.40
2022-12-10T00:13:39.876Z,-2.40
2022-12-10T00:16:08.165Z,-2.50
2022-12-10T00:18:35.256Z,-2.50
2022-12-10T00:21:05.798Z,-2.40
2022-12-10T00:23:33.432Z,-2.50
2022-12-10T00:26:10.197Z,-2.50
2022-12-10T00:28:37.878Z,-2.50
2022-12-10T00:31:05.634Z,-2.50
2022-12-10T00:33:32.595Z,-2.50
2022-12-10T00:36:06.278Z,-2.50
2022-12-10T00:38:33.132Z,-2.60
2022-12-10T00:41:00.511Z,-2.60
2022-12-10T00:43:27.740Z,-2.60
2022-12-10T00:45:54.602Z,-2.60
2022-12-10T00:48:21.728Z,-2.60
2022-12-10T00:50:57.808Z,-2.60
2022-12-10T00:53:25.425Z,-2.60
2022-12-10T00:55:52.524Z,-2.60
2022-12-10T00:58:19.403Z,-2.60
2022-12-10T01:04:02.548Z,-2.60
2022-12-10T01:06:31.289Z,-2.70
2022-12-10T01:08:59.307Z,-2.70
2022-12-10T01:11:30.430Z,-2.70
2022-12-10T01:13:57.495Z,-2.70
2022-12-10T01:16:24.371Z,-2.70
2022-12-10T01:18:53.528Z,-2.80
2022-12-10T01:21:20.417Z,-2.80
2022-12-10T01:23:47.914Z,-2.80
2022-12-10T01:26:16.086Z,-2.80
2022-12-10T01:28:43.283Z,-2.80
2022-12-10T01:34:03.794Z,-2.80
2022-12-10T01:39:34.481Z,-2.80
2022-12-10T01:42:01.361Z,-2.80
2022-12-10T01:44:28.154Z,-2.90
2022-12-10T01:46:57.696Z,-2.90
2022-12-10T01:49:33.099Z,-2.90
2022-12-10T01:55:07.646Z,-2.90
2022-12-10T01:57:34.520Z,-2.90
2022-12-10T02:00:02.299Z,-2.90
2022-12-10T02:02:44.104Z,-2.90
2022-12-10T02:05:18.172Z,-3.00
2022-12-10T02:07:49.296Z,-3.00
2022-12-10T02:10:28.504Z,-3.00
2022-12-10T02:12:59.207Z,-3.00
2022-12-10T02:15:28.109Z,-3.00
2022-12-10T02:17:59.259Z,-3.00
2022-12-10T02:20:40.674Z,-3.00
2022-12-10T02:23:14.030Z,-3.00
2022-12-10T02:25:59.792Z,-3.00
2022-12-10T02:28:26.699Z,-3.00
2022-12-10T02:30:53.565Z,-3.00
2022-12-10T02:33:20.626Z,-3.00
2022-12-10T02:35:47.970Z,-3.10
2022-12-10T02:38:24.770Z,-3.00
2022-12-10T02:40:52.623Z,-3.00
2022-12-10T02:43:20.179Z,-3.10
2022-12-10T02:45:47.338Z,-3.10
2022-12-10T02:48:14.789Z,-3.10
2022-12-10T02:50:43.587Z,-3.10
2022-12-10T02:53:10.579Z,-3.10
2022-12-10T02:55:50.472Z,-3.10
2022-12-10T02:58:17.381Z,-3.10
2022-12-10T03:00:56.604Z,-3.20
2022-12-10T03:03:26.690Z,-3.20
2022-12-10T03:05:56.871Z,-3.20
2022-12-10T03:08:25.440Z,-3.20
2022-12-10T03:11:12.658Z,-3.20
2022-12-10T03:13:59.952Z,-3.20
2022-12-10T03:16:27.628Z,-3.20
2022-12-10T03:18:57.560Z,-3.20
2022-12-10T03:21:25.024Z,-3.20
2022-12-10T03:23:51.862Z,-3.20
2022-12-10T03:26:18.944Z,-3.20
2022-12-10T03:28:52.631Z,-3.20
2022-12-10T03:31:19.621Z,-3.20
2022-12-10T03:33:46.844Z,-3.20
2022-12-10T03:36:13.714Z,-3.20
2022-12-10T03:38:40.574Z,-3.30
2022-12-10T03:41:07.634Z,-3.30
2022-12-10T03:43:34.467Z,-3.30
2022-12-10T03:46:01.314Z,-3.30
2022-12-10T03:48:28.182Z,-3.30
2022-12-10T03:50:54.994Z,-3.30
2022-12-10T03:53:21.799Z,-3.30
2022-12-10T03:55:48.634Z,-3.30
2022-12-10T03:58:20.229Z,-3.30
2022-12-10T04:00:47.392Z,-3.30
2022-12-10T04:03:14.230Z,-3.30
2022-12-10T04:05:41.478Z,-3.30
2022-12-10T04:08:08.348Z,-3.40
2022-12-10T04:10:38.335Z,-3.40
2022-12-10T04:13:23.981Z,-3.40
2022-12-10T04:16:09.488Z,-3.40
2022-12-10T04:18:36.291Z,-3.40
2022-12-10T04:21:21.775Z,-3.40
2022-12-10T04:24:07.332Z,-3.40
2022-12-10T04:26:52.849Z,-3.40
2022-12-10T04:29:20.184Z,-3.40
2022-12-10T04:31:47.056Z,-3.40
2022-12-10T04:34:13.873Z,-3.40
2022-12-10T04:36:40.765Z,-3.40
2022-12-10T04:39:07.589Z,-3.40
2022-12-10T04:41:34.508Z,-3.40
2022-12-10T04:44:01.362Z,-3.40
2022-12-10T04:46:28.757Z,-3.30
2022-12-10T04:48:55.623Z,-3.30
2022-12-10T04:51:22.775Z,-3.30
2022-12-10T04:53:49.606Z,-3.40
2022-12-10T04:56:16.407Z,-3.30
2022-12-10T04:58:43.295Z,-3.30
2022-12-10T05:04:22.888Z,-3.30
2022-12-10T05:06:50.484Z,-3.40
2022-12-10T05:09:17.377Z,-3.40
2022-12-10T05:11:45.572Z,-3.40
2022-12-10T05:14:12.727Z,-3.40
2022-12-10T05:16:39.644Z,-3.40
2022-12-10T05:19:06.434Z,-3.40
2022-12-10T05:21:52.033Z,-3.40
2022-12-10T05:24:18.962Z,-3.40
2022-12-10T05:26:45.880Z,-3.40
2022-12-10T05:29:13.194Z,-3.40
2022-12-10T05:31:40.027Z,-3.40
2022-12-10T05:34:09.298Z,-3.40
2022-12-10T05:36:36.099Z,-3.40
2022-12-10T05:39:03.308Z,-3.50
2022-12-10T05:41:30.915Z,-3.50
2022-12-10T05:43:58.431Z,-3.50
2022-12-10T05:46:26.113Z,-3.50
2022-12-10T05:48:53.326Z,-3.50
2022-12-10T05:51:20.936Z,-3.50
2022-12-10T05:53:47.991Z,-3.50
2022-12-10T05:56:19.411Z,-3.50
2022-12-10T05:58:46.623Z,-3.50
2022-12-10T06:01:16.984Z,-3.50
2022-12-10T06:03:43.907Z,-3.50
2022-12-10T06:06:11.237Z,-3.50
2022-12-10T06:08:39.362Z,-3.50
2022-12-10T06:11:09.108Z,-3.50
2022-12-10T06:13:35.925Z,-3.50
2022-12-10T06:16:06.707Z,-3.50
2022-12-10T06:18:33.608Z,-3.50
2022-12-10T06:21:00.496Z,-3.50
2022-12-10T06:23:27.345Z,-3.50
2022-12-10T06:25:54.214Z,-3.50
2022-12-10T06:28:21.028Z,-3.50
2022-12-10T06:30:47.860Z,-3.50
2022-12-10T06:33:14.693Z,-3.50
2022-12-10T06:35:41.568Z,-3.50
2022-12-10T06:38:08.385Z,-3.50
2022-12-10T06:40:35.232Z,-3.50
2022-12-10T06:43:02.036Z,-3.50
2022-12-10T06:45:28.899Z,-3.50
2022-12-10T06:47:55.731Z,-3.50
2022-12-10T06:50:22.593Z,-3.60
2022-12-10T06:52:54.873Z,-3.60
2022-12-10T06:55:22.035Z,-3.60
2022-12-10T06:57:51.583Z,-3.60
2022-12-10T07:00:21.879Z,-3.60
2022-12-10T07:02:49.295Z,-3.60
2022-12-10T07:05:16.267Z,-3.60
2022-12-10T07:07:43.818Z,-3.60
2022-12-10T07:10:11.663Z,-3.60
2022-12-10T07:12:38.682Z,-3.60
2022-12-10T07:15:05.766Z,-3.60
2022-12-10T07:17:32.615Z,-3.60
2022-12-10T07:19:59.441Z,-3.60
2022-12-10T07:22:26.289Z,-3.60
2022-12-10T07:24:53.183Z,-3.60
2022-12-10T07:27:20.094Z,-3.60
2022-12-10T07:29:46.969Z,-3.70
2022-12-10T07:32:13.896Z,-3.70
2022-12-10T07:34:40.795Z,-3.70
2022-12-10T07:37:08.048Z,-3.70
2022-12-10T07:39:35.035Z,-3.70
2022-12-10T07:42:01.835Z,-3.70
2022-12-10T07:44:29.263Z,-3.70
2022-12-10T07:46:56.198Z,-3.70
2022-12-10T07:52:28.056Z,-3.70
2022-12-10T07:54:54.891Z,-3.70
2022-12-10T07:57:22.037Z,-3.70
2022-12-10T07:59:48.887Z,-3.70
2022-12-10T08:02:15.700Z,-3.70
2022-12-10T08:04:42.759Z,-3.70
2022-12-10T08:07:11.382Z,-3.70
2022-12-10T08:09:38.242Z,-3.70
2022-12-10T08:12:05.155Z,-3.70
2022-12-10T08:14:32.053Z,-3.70
2022-12-10T08:16:58.923Z,-3.60
2022-12-10T08:19:31.372Z,-3.60
2022-12-10T08:21:58.771Z,-3.60
2022-12-10T08:24:25.591Z,-3.60
2022-12-10T08:26:52.420Z,-3.60
2022-12-10T08:29:19.325Z,-3.60
2022-12-10T08:31:46.442Z,-3.60
2022-12-10T08:34:17.095Z,-3.50
2022-12-10T08:36:44.363Z,-3.50
2022-12-10T08:39:11.583Z,-3.50
2022-12-10T08:41:38.703Z,-3.40
2022-12-10T08:44:05.659Z,-3.40
2022-12-10T08:46:32.931Z,-3.40
2022-12-10T08:48:59.814Z,-3.30
2022-12-10T08:51:26.888Z,-3.30
2022-12-10T08:53:53.712Z,-3.30
2022-12-10T08:56:20.688Z,-3.20
2022-12-10T08:58:47.633Z,-3.20
2022-12-10T09:01:16.105Z,-3.20
2022-12-10T09:03:43.085Z,-3.10
2022-12-10T09:06:11.154Z,-3.10
2022-12-10T09:08:38.216Z,-3.10
2022-12-10T09:11:06.006Z,-3.10
2022-12-10T09:13:32.882Z,-3.00
2022-12-10T09:15:59.917Z,-3.00
2022-12-10T09:18:26.974Z,-2.90
2022-12-10T09:20:53.808Z,-2.90
2022-12-10T09:23:20.741Z,-2.80
2022-12-10T09:25:47.774Z,-2.70
2022-12-10T09:28:14.611Z,-2.70
2022-12-10T09:30:41.646Z,-2.60
2022-12-10T09:33:08.684Z,-2.60
2022-12-10T09:35:35.541Z,-2.50
2022-12-10T09:38:02.327Z,-2.50
2022-12-10T09:40:40.734Z,-2.40
2022-12-10T09:43:10.575Z,-2.40
2022-12-10T09:45:58.862Z,-2.30
2022-12-10T09:48:44.799Z,-2.30
2022-12-10T09:51:14.270Z,-2.20
2022-12-10T09:53:41.234Z,-2.20
2022-12-10T09:56:08.277Z,-2.10
2022-12-10T09:58:35.234Z,-2.10
2022-12-10T10:01:03.341Z,-2.00
2022-12-10T10:03:32.348Z,-2.00
2022-12-10T10:05:59.202Z,-1.90
2022-12-10T10:08:30.535Z,-1.90
2022-12-10T10:10:57.431Z,-1.80
2022-12-10T10:13:27.089Z,-1.70
2022-12-10T10:15:53.932Z,-1.70
2022-12-10T10:18:32.791Z,-1.70
2022-12-10T10:20:59.877Z,-1.60
2022-12-10T10:26:30.433Z,-1.40
2022-12-10T10:29:01.305Z,-1.30
2022-12-10T10:31:29.451Z,-1.20
2022-12-10T10:33:57.795Z,-1.10
2022-12-10T10:36:28.312Z,-0.90
2022-12-10T10:38:55.229Z,-0.80
2022-12-10T10:41:22.095Z,-0.60
2022-12-10T10:43:49.308Z,-0.50
2022-12-10T10:46:16.945Z,-0.40
2022-12-10T10:48:43.922Z,-0.40
2022-12-10T10:51:13.894Z,-0.30
2022-12-10T10:53:44.888Z,-0.20
2022-12-10T10:56:12.861Z,-0.10
2022-12-10T10:58:47.423Z,0.00
2022-12-10T11:01:14.367Z,0.10
2022-12-10T11:03:46.643Z,0.20
2022-12-10T11:06:13.469Z,0.30
2022-12-10T11:08:43.321Z,0.40
2022-12-10T11:11:14.166Z,0.50
2022-12-10T11:13:41.159Z,0.60
2022-12-10T11:16:24.048Z,0.60
2022-12-10T11:19:03.011Z,0.70
2022-12-10T11:21:33.518Z,0.70
2022-12-10T11:24:00.519Z,0.80
2022-12-10T11:26:31.190Z,0.90
2022-12-10T11:29:01.089Z,1.00
2022-12-10T11:31:33.870Z,1.00
2022-12-10T11:34:18.823Z,1.00
2022-12-10T11:36:55.283Z,1.00
2022-12-10T11:39:28.397Z,1.10
2022-12-10T11:42:01.154Z,1.10
2022-12-10T11:44:46.728Z,1.10
2022-12-10T11:47:19.622Z,1.10
2022-12-10T11:49:58.449Z,1.20
2022-12-10T11:52:31.486Z,1.30
2022-12-10T11:55:05.086Z,1.30
2022-12-10T11:57:36.706Z,1.40
2022-12-10T12:00:06.406Z,1.40
2022-12-10T12:02:38.214Z,1.40
2022-12-10T12:05:05.085Z,1.50
2022-12-10T12:07:31.906Z,1.50
2022-12-10T12:10:11.421Z,1.60
2022-12-10T12:12:56.004Z,1.60
2022-12-10T12:15:30.650Z,1.70
2022-12-10T12:18:00.370Z,1.80
2022-12-10T12:20:30.068Z,1.80
2022-12-10T12:23:01.542Z,1.90
2022-12-10T12:25:29.440Z,1.90
2022-12-10T12:28:06.700Z,1.90
2022-12-10T12:30:33.760Z,1.90
2022-12-10T12:33:01.011Z,1.90
2022-12-10T12:35:47.708Z,1.90
2022-12-10T12:38:26.860Z,2.00
2022-12-10T12:40:53.776Z,2.00
2022-12-10T12:43:22.199Z,2.00
2022-12-10T12:45:49.622Z,2.00
2022-12-10T12:48:31.540Z,2.00
2022-12-10T12:51:02.790Z,2.00
2022-12-10T12:53:34.962Z,2.10
2022-12-10T12:56:05.404Z,2.10
2022-12-10T12:58:38.352Z,2.20
2022-12-10T13:01:23.657Z,2.20
2022-12-10T13:03:50.519Z,2.30
2022-12-10T13:06:20.787Z,2.30
2022-12-10T13:08:51.522Z,2.30
2022-12-10T13:11:19.536Z,2.30
2022-12-10T13:14:12.396Z,2.30
2022-12-10T13:16:39.350Z,2.30
2022-12-10T13:19:18.504Z,2.40
2022-12-10T13:21:51.136Z,2.40
2022-12-10T13:24:21.529Z,2.50
2022-12-10T13:27:07.146Z,2.50
2022-12-10T13:29:47.798Z,2.40
2022-12-10T13:32:18.601Z,2.40
2022-12-10T13:34:45.609Z,2.30
2022-12-10T13:37:16.743Z,2.30
2022-12-10T13:39:47.792Z,2.30
2022-12-10T13:42:33.412Z,2.20
2022-12-10T13:45:18.993Z,2.20
2022-12-10T13:51:01.677Z,2.10
2022-12-10T13:53:31.670Z,2.10
2022-12-10T13:56:04.747Z,2.00
2022-12-10T13:58:35.147Z,2.00
2022-12-10T14:01:06.180Z,2.00
2022-12-10T14:03:51.885Z,2.00
2022-12-10T14:06:19.438Z,2.10
2022-12-10T14:08:55.340Z,2.10
2022-12-10T14:11:22.945Z,2.10
2022-12-10T14:13:52.598Z,2.20
2022-12-10T14:16:20.051Z,2.30
2022-12-10T14:18:50.702Z,2.30
2022-12-10T14:21:17.577Z,2.40
2022-12-10T14:23:48.601Z,2.50
2022-12-10T14:26:18.519Z,2.50
2022-12-10T14:28:46.425Z,2.50
2022-12-10T14:31:14.646Z,2.60
2022-12-10T14:33:41.517Z,2.50
2022-12-10T14:36:13.449Z,2.50
2022-12-10T14:38:40.289Z,2.40
2022-12-10T14:41:07.110Z,2.40
2022-12-10T14:43:37.641Z,2.30
2022-12-10T14:46:05.129Z,2.30
2022-12-10T14:48:32.086Z,2.30
2022-12-10T14:51:05.225Z,2.20
2022-12-10T14:53:32.334Z,2.10
2022-12-10T14:56:02.948Z,2.10
2022-12-10T14:59:02.541Z,2.00
2022-12-10T15:01:30.433Z,2.00
2022-12-10T15:03:58.229Z,1.90
2022-12-10T15:06:25.221Z,1.80
2022-12-10T15:08:53.282Z,1.80
2022-12-10T15:11:20.454Z,1.70
2022-12-10T15:13:50.362Z,1.70
2022-12-10T15:16:18.120Z,1.60
2022-12-10T15:18:46.365Z,1.50
2022-12-10T15:21:18.328Z,1.50
2022-12-10T15:23:45.577Z,1.40
2022-12-10T15:26:15.410Z,1.40
2022-12-10T15:28:42.408Z,1.30
2022-12-10T15:31:13.159Z,1.30
2022-12-10T15:33:44.476Z,1.20
2022-12-10T15:36:23.956Z,1.10
2022-12-10T15:38:50.819Z,1.10
2022-12-10T15:41:35.788Z,1.00
2022-12-10T15:44:04.047Z,1.00
2022-12-10T15:46:30.911Z,0.90
2022-12-10T15:48:57.783Z,0.80
2022-12-10T15:51:24.966Z,0.70
2022-12-10T15:53:51.816Z,0.70
2022-12-10T15:56:19.213Z,0.60
2022-12-10T15:58:46.273Z,0.60
2022-12-10T16:01:14.786Z,0.50
2022-12-10T16:03:42.780Z,0.50
2022-12-10T16:06:09.585Z,0.40
2022-12-10T16:08:37.080Z,0.40
2022-12-10T16:11:07.682Z,0.30
2022-12-10T16:13:38.045Z,0.20
2022-12-10T16:16:06.412Z,0.20
2022-12-10T16:18:34.525Z,0.10
2022-12-10T16:21:01.568Z,0.10
2022-12-10T16:23:28.396Z,0.00
2022-12-10T16:25:55.376Z,0.00
2022-12-10T16:28:22.571Z,0.00
2022-12-10T16:30:52.910Z,-0.10
2022-12-10T16:33:20.281Z,-0.10
2022-12-10T16:35:50.388Z,-0.10
2022-12-10T16:38:17.471Z,-0.20
2022-12-10T16:40:44.352Z,-0.20
2022-12-10T16:43:17.999Z,-0.20
2022-12-10T16:45:45.004Z,-0.30
2022-12-10T16:48:12.211Z,-0.30
2022-12-10T16:50:39.294Z,-0.30
2022-12-10T16:53:26.168Z,-0.30
2022-12-10T16:55:53.323Z,-0.40
2022-12-10T16:58:20.253Z,-0.40
2022-12-10T17:00:48.395Z,-0.40
2022-12-10T17:03:25.572Z,-0.40
2022-12-10T17:05:56.406Z,-0.40
2022-12-10T17:08:23.381Z,-0.50
2022-12-10T17:11:08.647Z,-0.50
2022-12-10T17:13:35.779Z,-0.50
2022-12-10T17:16:02.597Z,-0.50
2022-12-10T17:18:29.431Z,-0.60
2022-12-10T17:20:56.269Z,-0.60
2022-12-10T17:23:24.265Z,-0.60
2022-12-10T17:25:51.081Z,-0.60
2022-12-10T17:28:18.994Z,-0.60
2022-12-10T17:30:45.883Z,-0.70
2022-12-10T17:33:22.751Z,-0.70
2022-12-10T17:35:50.395Z,-0.70
2022-12-10T17:38:21.089Z,-0.70
2022-12-10T17:40:48.020Z,-0.70
2022-12-10T17:43:14.828Z,-0.70
2022-12-10T17:45:42.116Z,-0.70
2022-12-10T17:48:11.447Z,-0.80
2022-12-10T17:50:38.403Z,-0.80
2022-12-10T17:53:06.667Z,-0.80
2022-12-10T17:55:33.523Z,-0.80
2022-12-10T17:58:00.332Z,-0.80
2022-12-10T18:00:27.876Z,-0.90
2022-12-10T18:02:55.145Z,-0.90
2022-12-10T18:05:22.102Z,-0.90
2022-12-10T18:07:48.992Z,-0.90
2022-12-10T18:10:17.987Z,-1.00
2022-12-10T18:12:44.955Z,-1.00
2022-12-10T18:15:12.391Z,-1.00
2022-12-10T18:17:39.405Z,-1.00
2022-12-10T18:20:06.585Z,-1.00
2022-12-10T18:22:33.540Z,-1.10
2022-12-10T18:25:00.403Z,-1.10
2022-12-10T18:27:27.199Z,-1.10
2022-12-10T18:29:54.363Z,-1.10
2022-12-10T18:32:21.154Z,-1.10
2022-12-10T18:34:48.287Z,-1.20
2022-12-10T18:37:15.283Z,-1.20
2022-12-10T18:39:42.222Z,-1.20
2022-12-10T18:42:09.204Z,-1.20
2022-12-10T18:44:36.063Z,-1.20
2022-12-10T18:47:02.962Z,-1.20
2022-12-10T18:49:31.741Z,-1.20
2022-12-10T18:51:58.575Z,-1.20
2022-12-10T18:54:25.460Z,-1.20
2022-12-10T18:57:31.635Z,-1.30
2022-12-10T18:59:39.236Z,-1.30
2022-12-10T19:02:06.105Z,-1.30
2022-12-10T19:04:32.964Z,-1.30
2022-12-10T19:06:59.798Z,-1.40
2022-12-10T19:09:30.817Z,-1.40
2022-12-10T19:11:59.171Z,-1.40
2022-12-10T19:14:26.116Z,-1.40
2022-12-10T19:16:52.955Z,-1.40
2022-12-10T19:19:19.841Z,-1.50
2022-12-10T19:21:46.915Z,-1.50
2022-12-10T19:24:13.862Z,-1.50
2022-12-10T19:26:41.382Z,-1.50
2022-12-10T19:29:34.689Z,-1.60
2022-12-10T19:32:01.566Z,-1.60
2022-12-10T19:34:29.625Z,-1.60
2022-12-10T19:36:56.534Z,-1.50
2022-12-10T19:39:23.857Z,-1.60
2022-12-10T19:41:51.322Z,-1.60
2022-12-10T19:44:18.222Z,-1.60
2022-12-10T19:46:45.190Z,-1.60
2022-12-10T19:49:12.500Z,-1.70
2022-12-10T19:51:39.332Z,-1.70
2022-12-10T19:54:06.277Z,-1.70
2022-12-10T19:56:33.339Z,-1.70
2022-12-10T19:59:01.064Z,-1.70
2022-12-10T20:01:28.238Z,-1.70
2022-12-10T20:03:55.316Z,-1.70
2022-12-10T20:06:23.082Z,-1.80
2022-12-10T20:08:49.944Z,-1.70
2022-12-10T20:11:16.857Z,-1.80
2022-12-10T20:13:43.786Z,-1.80
2022-12-10T20:16:17.947Z,-1.80
2022-12-10T20:18:45.584Z,-1.70
2022-12-10T20:21:12.428Z,-1.80
2022-12-10T20:26:45.013Z,-1.90
2022-12-10T20:29:22.053Z,-1.90
2022-12-10T20:31:49.279Z,-1.90
2022-12-10T20:34:16.835Z,-1.90
2022-12-10T20:36:43.889Z,-1.90
2022-12-10T20:39:13.874Z,-2.00
2022-12-10T20:41:40.803Z,-2.00
2022-12-10T20:44:07.618Z,-2.00
2022-12-10T20:46:35.040Z,-2.00
2022-12-10T20:49:01.893Z,-2.00
2022-12-10T20:51:29.119Z,-2.10
2022-12-10T20:53:55.964Z,-2.10
2022-12-10T20:56:23.367Z,-2.10
2022-12-10T20:58:50.527Z,-2.10
2022-12-10T21:01:17.600Z,-2.20
2022-12-10T21:03:44.791Z,-2.20
2022-12-10T21:06:13.472Z,-2.20
2022-12-10T21:08:40.295Z,-2.20
2022-12-10T21:11:07.125Z,-2.30
2022-12-10T21:13:33.936Z,-2.20
2022-12-10T21:16:01.221Z,-2.30
2022-12-10T21:18:28.407Z,-2.30
2022-12-10T21:20:55.418Z,-2.30
2022-12-10T21:23:23.480Z,-2.30
2022-12-10T21:25:50.403Z,-2.30
2022-12-10T21:28:17.205Z,-2.30
2022-12-10T21:30:47.715Z,-2.40
2022-12-10T21:33:18.819Z,-2.40
2022-12-10T21:35:45.881Z,-2.40
2022-12-10T21:38:12.723Z,-2.40
2022-12-10T21:40:40.106Z,-2.40
2022-12-10T21:43:16.151Z,-2.40
2022-12-10T21:45:50.282Z,-2.50
2022-12-10T21:48:21.450Z,-2.50
2022-12-10T21:50:48.766Z,-2.50
2022-12-10T21:53:15.670Z,-2.50
2022-12-10T21:55:45.639Z,-2.50
2022-12-10T21:58:12.623Z,-2.60
2022-12-10T22:00:39.532Z,-2.60
2022-12-10T22:03:06.507Z,-2.70
2022-12-10T22:05:33.724Z,-2.60
2022-12-10T22:08:00.607Z,-2.60
2022-12-10T22:10:27.549Z,-2.70
2022-12-10T22:12:54.407Z,-2.70
2022-12-10T22:15:21.359Z,-2.70
2022-12-10T22:17:48.191Z,-2.70
2022-12-10T22:20:14.987Z,-2.70
2022-12-10T22:22:41.855Z,-2.70
2022-12-10T22:25:08.933Z,-2.70
2022-12-10T22:27:36.263Z,-2.80
2022-12-10T22:30:04.328Z,-2.80
2022-12-10T22:32:31.320Z,-2.80
2022-12-10T22:34:58.167Z,-2.80
2022-12-10T22:37:25.400Z,-2.80
2022-12-10T22:39:52.299Z,-2.90
2022-12-10T22:42:19.128Z,-2.90
2022-12-10T22:44:45.895Z,-2.90
2022-12-10T22:47:12.740Z,-2.90
2022-12-10T22:49:40.016Z,-2.90
2022-12-10T22:52:06.851Z,-2.80
2022-12-10T22:54:33.782Z,-2.90
2022-12-10T22:57:00.600Z,-2.90
2022-12-10T22:59:27.592Z,-2.90
2022-12-10T23:01:54.507Z,-2.90
2022-12-10T23:04:21.457Z,-3.00
2022-12-10T23:06:48.293Z,-3.00
2022-12-10T23:09:15.117Z,-3.00
2022-12-10T23:12:01.950Z,-3.00
2022-12-10T23:14:29.069Z,-3.00
2022-12-10T23:16:55.872Z,-3.00
2022-12-10T23:19:22.697Z,-3.00
2022-12-10T23:21:49.904Z,-3.00
2022-12-10T23:24:16.723Z,-3.00
2022-12-10T23:26:44.487Z,-3.00
2022-12-10T23:29:11.731Z,-3.10
2022-12-10T23:31:38.616Z,-3.00
2022-12-10T23:34:05.491Z,-3.10
2022-12-10T23:36:32.390Z,-3.10
2022-12-10T23:38:59.429Z,-3.10
2022-12-10T23:41:26.260Z,-3.10
2022-12-10T23:43:57.341Z,-3.10
2022-12-10T23:46:24.704Z,-3.20
2022-12-10T23:48:51.527Z,-3.10
2022-12-10T23:51:18.520Z,-3.20
2022-12-10T23:53:45.345Z,-3.20
2022-12-10T23:56:15.912Z,-3.20
2022-12-10T23:58:42.868Z,-3.20
